Time;durP1;ratioP1;P1;durP2;ratioP2;P2;SDS_P1;SDS_P2;PMS_P1;PMS_P2;Temp;Humidity;BMP_temperature;BMP_pressure;BME280_temperature;BME280_humidity;BME280_pressure;Samples;Min_cycle;Max_cycle;Signal;HPM_P1;HPM_P2
2022/07/15 00:00:04;;;;;;;7.40;1.50;;;;;;;;;;6098541;23;20113;-80
2022/07/15 00:02:31;;;;;;;5.05;1.50;;;;;;;;;;6097712;23;20057;-80
2022/07/15 00:04:58;;;;;;;6.60;1.52;;;;;;;;;;6098690;23;20355;-80
2022/07/15 00:07:25;;;;;;;7.35;1.88;;;;;;;;;;6099717;23;20034;-79
2022/07/15 00:12:38;;;;;;;4.18;1.60;;;;;;;;;;6100211;23;20049;-79
2022/07/15 00:15:07;;;;;;;9.50;1.77;;;;;;;;;;6099500;23;20027;-80
2022/07/15 00:17:37;;;;;;;7.05;1.73;;;;;;;;;;6099681;23;20779;-79
2022/07/15 00:20:07;;;;;;;9.40;1.83;;;;;;;;;;6099531;23;20043;-81
2022/07/15 00:22:34;;;;;;;8.55;2.10;;;;;;;;;;6100121;23;20023;-80
2022/07/15 00:25:01;;;;;;;5.95;1.48;;;;;;;;;;6099914;23;20031;-79
2022/07/15 00:27:28;;;;;;;8.85;1.60;;;;;;;;;;6099504;23;20110;-80
2022/07/15 00:29:55;;;;;;;5.55;1.83;;;;;;;;;;6099688;23;20058;-80
2022/07/15 00:32:22;;;;;;;8.60;1.70;;;;;;;;;;6099824;23;20057;-80
2022/07/15 00:34:51;;;;;;;5.15;1.70;;;;;;;;;;6099581;23;20031;-80
2022/07/15 00:37:18;;;;;;;6.63;1.58;;;;;;;;;;6099984;23;20102;-79
2022/07/15 00:39:45;;;;;;;6.65;1.38;;;;;;;;;;6100056;23;20027;-80
2022/07/15 00:42:43;;;;;;;8.05;1.55;;;;;;;;;;6099519;23;20043;-80
2022/07/15 00:45:00;;;;;;;11.73;2.22;;;;;;;;;;6100045;23;20046;-80
2022/07/15 00:47:27;;;;;;;7.00;1.42;;;;;;;;;;6099808;23;20098;-80
2022/07/15 00:49:54;;;;;;;5.28;1.63;;;;;;;;;;6100349;23;20027;-80
2022/07/15 00:52:23;;;;;;;6.93;1.60;;;;;;;;;;6100064;23;20029;-80
2022/07/15 00:54:51;;;;;;;9.60;1.83;;;;;;;;;;6122706;23;20026;-79
2022/07/15 00:57:18;;;;;;;12.05;2.40;;;;;;;;;;6099180;23;20098;-79
2022/07/15 00:59:46;;;;;;;7.57;1.63;;;;;;;;;;6099328;23;20034;-80
2022/07/15 01:02:14;;;;;;;4.65;1.42;;;;;;;;;;6100312;23;20033;-79
2022/07/15 01:04:41;;;;;;;6.43;1.65;;;;;;;;;;6099363;23;20039;-79
2022/07/15 01:07:08;;;;;;;9.40;1.52;;;;;;;;;;6100339;23;20367;-80
2022/07/15 01:09:36;;;;;;;7.53;1.73;;;;;;;;;;6099414;23;20046;-80
2022/07/15 01:12:03;;;;;;;4.00;1.50;;;;;;;;;;6100360;23;20366;-80
2022/07/15 01:14:30;;;;;;;13.20;1.83;;;;;;;;;;6100096;23;20023;-80
2022/07/15 01:16:57;;;;;;;6.85;1.35;;;;;;;;;;6098654;23;20110;-81
2022/07/15 01:19:24;;;;;;;9.00;1.95;;;;;;;;;;6100293;23;20031;-80
2022/07/15 01:21:54;;;;;;;9.05;1.90;;;;;;;;;;6099739;23;20093;-81
2022/07/15 01:24:21;;;;;;;15.20;2.15;;;;;;;;;;6100630;23;20051;-81
2022/07/15 01:26:49;;;;;;;6.15;1.63;;;;;;;;;;6099901;23;20495;-80
2022/07/15 01:29:16;;;;;;;7.32;1.80;;;;;;;;;;6101208;23;20026;-80
2022/07/15 01:31:43;;;;;;;6.32;1.67;;;;;;;;;;6101066;23;20030;-81
2022/07/15 01:34:10;;;;;;;12.88;1.60;;;;;;;;;;6104630;23;20027;-80
2022/07/15 01:36:38;;;;;;;9.65;1.70;;;;;;;;;;6105251;23;20058;-81
2022/07/15 01:39:05;;;;;;;10.05;1.90;;;;;;;;;;6105204;23;20506;-80
2022/07/15 01:41:52;;;;;;;9.13;1.63;;;;;;;;;;6106501;23;20023;-80
2022/07/15 01:44:19;;;;;;;4.78;1.48;;;;;;;;;;6105935;23;20027;-80
2022/07/15 01:46:47;;;;;;;8.40;1.70;;;;;;;;;;6123941;23;20023;-80
2022/07/15 01:49:25;;;;;;;7.35;2.20;;;;;;;;;;6100213;23;20097;-80
2022/07/15 01:51:54;;;;;;;6.00;1.55;;;;;;;;;;6122297;23;20082;-79
2022/07/15 01:54:22;;;;;;;6.32;1.77;;;;;;;;;;6100654;23;20860;-80
2022/07/15 01:56:56;;;;;;;7.20;1.70;;;;;;;;;;6100204;23;20042;-81
2022/07/15 01:59:24;;;;;;;7.65;1.60;;;;;;;;;;6100899;23;20065;-80
2022/07/15 02:01:55;;;;;;;7.28;1.88;;;;;;;;;;6099907;23;20019;-81
2022/07/15 02:04:26;;;;;;;8.50;1.50;;;;;;;;;;6100342;23;20109;-81
2022/07/15 02:06:53;;;;;;;3.90;1.40;;;;;;;;;;6099378;23;20023;-80
2022/07/15 02:09:20;;;;;;;8.02;1.48;;;;;;;;;;6100129;23;20098;-80
2022/07/15 02:11:49;;;;;;;5.97;1.83;;;;;;;;;;6100123;23;20043;-79
2022/07/15 02:14:16;;;;;;;5.53;1.27;;;;;;;;;;6100180;23;20066;-80
2022/07/15 02:16:43;;;;;;;4.88;1.45;;;;;;;;;;6099305;23;20772;-79
2022/07/15 02:19:10;;;;;;;7.00;1.95;;;;;;;;;;6100036;23;20027;-79
2022/07/15 02:21:40;;;;;;;6.47;2.17;;;;;;;;;;6122894;23;20461;-80
2022/07/15 02:24:07;;;;;;;8.38;1.92;;;;;;;;;;6123231;23;20119;-80
2022/07/15 02:26:35;;;;;;;9.05;1.73;;;;;;;;;;6099784;23;20051;-80
2022/07/15 02:29:03;;;;;;;10.75;1.98;;;;;;;;;;6100026;23;20465;-80
2022/07/15 02:31:30;;;;;;;6.93;1.63;;;;;;;;;;6099919;23;20044;-80
2022/07/15 02:33:57;;;;;;;6.00;1.73;;;;;;;;;;6099535;23;20760;-80
2022/07/15 02:36:24;;;;;;;7.68;1.85;;;;;;;;;;6100103;23;20027;-81
2022/07/15 02:38:51;;;;;;;3.88;1.42;;;;;;;;;;6122792;23;20058;-81
2022/07/15 02:41:21;;;;;;;5.55;1.85;;;;;;;;;;6100879;23;20024;-79
2022/07/15 02:43:48;;;;;;;8.43;1.90;;;;;;;;;;6101467;23;20054;-80
2022/07/15 02:46:15;;;;;;;7.90;1.52;;;;;;;;;;6101644;23;20027;-81
2022/07/15 02:48:42;;;;;;;6.93;1.58;;;;;;;;;;6100133;23;20105;-79
2022/07/15 02:51:09;;;;;;;9.18;1.92;;;;;;;;;;6100272;23;20098;-79
2022/07/15 02:53:38;;;;;;;8.35;1.45;;;;;;;;;;6099972;23;20034;-79
2022/07/15 02:56:06;;;;;;;8.23;2.00;;;;;;;;;;6099552;23;20029;-79
2022/07/15 02:58:33;;;;;;;7.55;1.65;;;;;;;;;;6099912;23;20029;-80
2022/07/15 03:01:00;;;;;;;6.72;1.80;;;;;;;;;;6099775;23;20027;-80
2022/07/15 03:03:28;;;;;;;6.68;1.77;;;;;;;;;;6122335;23;20051;-80
2022/07/15 03:05:59;;;;;;;6.25;1.65;;;;;;;;;;6099992;23;20752;-81
2022/07/15 03:08:26;;;;;;;5.95;1.73;;;;;;;;;;6099527;23;20057;-80
2022/07/15 03:10:53;;;;;;;5.55;1.70;;;;;;;;;;6100736;23;20101;-80
2022/07/15 03:13:20;;;;;;;6.90;1.70;;;;;;;;;;6100494;23;20027;-79
2022/07/15 03:15:47;;;;;;;4.07;1.42;;;;;;;;;;6099398;23;20019;-80
2022/07/15 03:18:15;;;;;;;8.65;1.88;;;;;;;;;;6101199;23;20018;-81
2022/07/15 03:20:42;;;;;;;6.88;1.58;;;;;;;;;;6100328;23;20887;-79
2022/07/15 03:23:15;;;;;;;4.20;1.55;;;;;;;;;;6100824;23;20110;-80
2022/07/15 03:25:42;;;;;;;7.60;2.00;;;;;;;;;;6099263;23;20033;-80
2022/07/15 03:28:09;;;;;;;10.98;2.03;;;;;;;;;;6099945;23;20026;-80
2022/07/15 03:30:37;;;;;;;6.03;1.60;;;;;;;;;;6100760;23;20473;-80
2022/07/15 03:33:04;;;;;;;6.97;1.90;;;;;;;;;;6105586;23;20019;-80
2022/07/15 03:35:31;;;;;;;8.02;2.03;;;;;;;;;;6102610;23;20177;-80
2022/07/15 03:37:58;;;;;;;5.13;1.50;;;;;;;;;;6100669;23;20832;-79
2022/07/15 03:40:26;;;;;;;6.43;1.50;;;;;;;;;;6101531;23;20027;-80
2022/07/15 03:42:55;;;;;;;4.18;1.35;;;;;;;;;;6101403;23;20832;-81
2022/07/15 03:45:23;;;;;;;7.88;1.48;;;;;;;;;;6124474;23;20050;-80
2022/07/15 03:47:50;;;;;;;7.28;1.70;;;;;;;;;;6101932;23;20094;-81
2022/07/15 03:50:17;;;;;;;6.00;1.70;;;;;;;;;;6123451;23;20048;-81
2022/07/15 03:52:44;;;;;;;4.70;1.70;;;;;;;;;;6123174;23;20023;-79
2022/07/15 03:55:11;;;;;;;12.10;1.60;;;;;;;;;;6100871;23;20042;-81
2022/07/15 03:57:39;;;;;;;8.43;1.80;;;;;;;;;;6124291;23;20027;-80
2022/07/15 04:00:07;;;;;;;8.23;2.20;;;;;;;;;;6101202;23;20081;-80
2022/07/15 04:02:34;;;;;;;4.60;1.48;;;;;;;;;;6100651;23;20027;-80
2022/07/15 04:05:01;;;;;;;5.88;1.85;;;;;;;;;;6101536;23;20023;-80
2022/07/15 04:07:28;;;;;;;10.60;1.90;;;;;;;;;;6101428;23;20054;-80
2022/07/15 04:09:55;;;;;;;4.80;1.40;;;;;;;;;;6102337;23;20657;-81
2022/07/15 04:12:25;;;;;;;9.60;1.80;;;;;;;;;;6101001;23;20041;-80
2022/07/15 04:14:52;;;;;;;3.28;1.40;;;;;;;;;;6101264;23;20102;-80
2022/07/15 04:17:19;;;;;;;4.53;1.90;;;;;;;;;;6101315;23;20086;-80
2022/07/15 04:19:46;;;;;;;8.15;1.75;;;;;;;;;;6100576;23;20023;-80
2022/07/15 04:22:13;;;;;;;8.25;2.30;;;;;;;;;;6124037;23;20951;-80
2022/07/15 04:24:40;;;;;;;6.47;1.85;;;;;;;;;;6101738;23;20863;-80
2022/07/15 04:27:07;;;;;;;7.68;2.15;;;;;;;;;;6101779;23;20075;-80
2022/07/15 04:29:35;;;;;;;5.28;1.50;;;;;;;;;;6101893;23;20027;-80
2022/07/15 04:32:04;;;;;;;5.18;1.95;;;;;;;;;;6124570;23;20047;-80
2022/07/15 04:34:31;;;;;;;8.48;1.77;;;;;;;;;;6103535;23;20026;-82
2022/07/15 04:36:58;;;;;;;7.40;2.08;;;;;;;;;;6111956;23;20019;-79
2022/07/15 04:39:26;;;;;;;5.28;1.55;;;;;;;;;;6138395;23;20023;-81
2022/07/15 04:41:54;;;;;;;6.53;2.03;;;;;;;;;;6116932;23;20017;-82
2022/07/15 04:44:21;;;;;;;9.13;2.47;;;;;;;;;;6107184;23;20023;-80
2022/07/15 04:46:48;;;;;;;8.00;1.50;;;;;;;;;;6103750;23;20030;-80
2022/07/15 04:52:04;;;;;;;13.30;2.00;;;;;;;;;;6118119;23;20046;-81
2022/07/15 04:54:31;;;;;;;5.93;1.73;;;;;;;;;;6142203;23;20078;-83
2022/07/15 04:57:02;;;;;;;6.78;1.77;;;;;;;;;;6119572;23;20023;-82
2022/07/15 04:59:29;;;;;;;11.52;2.25;;;;;;;;;;6107384;23;20019;-80
2022/07/15 05:01:56;;;;;;;10.43;1.75;;;;;;;;;;6102530;23;20792;-80
2022/07/15 05:04:24;;;;;;;11.00;2.00;;;;;;;;;;6101232;23;20844;-80
2022/07/15 05:06:51;;;;;;;14.25;2.05;;;;;;;;;;6100791;23;20027;-79
2022/07/15 05:09:18;;;;;;;6.00;1.73;;;;;;;;;;6100214;23;20030;-80
2022/07/15 05:11:45;;;;;;;8.95;2.08;;;;;;;;;;6100835;23;20014;-80
2022/07/15 05:14:12;;;;;;;5.40;1.75;;;;;;;;;;6123080;23;20101;-80
2022/07/15 05:16:39;;;;;;;4.05;1.50;;;;;;;;;;6124106;23;20027;-79
2022/07/15 05:19:06;;;;;;;4.30;1.50;;;;;;;;;;6100714;23;20031;-79
2022/07/15 05:21:34;;;;;;;8.27;1.55;;;;;;;;;;6100722;23;20874;-80
2022/07/15 05:24:01;;;;;;;7.50;1.65;;;;;;;;;;6101037;23;20870;-80
2022/07/15 05:26:48;;;;;;;6.85;1.50;;;;;;;;;;6100475;23;20027;-80
2022/07/15 05:29:15;;;;;;;13.10;2.00;;;;;;;;;;6100946;23;20126;-80
2022/07/15 05:31:42;;;;;;;6.10;1.60;;;;;;;;;;6101034;23;20027;-80
2022/07/15 05:34:10;;;;;;;12.27;2.00;;;;;;;;;;6101432;23;20027;-80
2022/07/15 05:36:37;;;;;;;8.90;1.70;;;;;;;;;;6101238;23;20027;-80
2022/07/15 05:39:06;;;;;;;11.48;1.75;;;;;;;;;;6100864;23;20365;-79
2022/07/15 05:41:33;;;;;;;12.45;1.40;;;;;;;;;;6100861;23;20033;-79
2022/07/15 05:44:00;;;;;;;8.85;1.70;;;;;;;;;;6100660;23;20075;-79
2022/07/15 05:46:27;;;;;;;7.72;2.08;;;;;;;;;;6101352;23;20015;-79
2022/07/15 05:48:55;;;;;;;6.45;1.38;;;;;;;;;;6100920;23;20023;-80
2022/07/15 05:51:22;;;;;;;7.38;1.55;;;;;;;;;;6101148;23;20033;-81
2022/07/15 05:53:49;;;;;;;12.82;1.95;;;;;;;;;;6101573;23;20022;-80
2022/07/15 05:56:16;;;;;;;9.70;1.60;;;;;;;;;;6104882;23;20023;-80
2022/07/15 05:58:43;;;;;;;9.30;2.08;;;;;;;;;;6109371;23;20023;-80
2022/07/15 06:01:10;;;;;;;6.68;1.50;;;;;;;;;;6108987;23;20083;-79
2022/07/15 06:03:37;;;;;;;5.47;1.70;;;;;;;;;;6109235;23;20015;-79
2022/07/15 06:06:06;;;;;;;6.95;1.75;;;;;;;;;;6107992;23;20019;-79
2022/07/15 06:08:34;;;;;;;7.55;1.80;;;;;;;;;;6107029;23;20069;-80
2022/07/15 06:11:01;;;;;;;7.50;1.67;;;;;;;;;;6148733;23;20027;-80
2022/07/15 06:13:28;;;;;;;7.00;1.60;;;;;;;;;;6101709;23;20026;-80
2022/07/15 06:15:57;;;;;;;5.72;1.30;;;;;;;;;;6101352;23;20113;-80
2022/07/15 06:18:25;;;;;;;7.78;1.92;;;;;;;;;;6101535;23;20027;-79
2022/07/15 06:20:53;;;;;;;6.97;1.30;;;;;;;;;;6100474;23;20111;-80
2022/07/15 06:23:20;;;;;;;7.00;1.30;;;;;;;;;;6100739;23;20056;-79
2022/07/15 06:25:47;;;;;;;5.68;1.17;;;;;;;;;;6099857;23;20025;-81
2022/07/15 06:28:14;;;;;;;5.75;1.40;;;;;;;;;;6101165;23;20047;-80
2022/07/15 06:30:41;;;;;;;8.68;1.35;;;;;;;;;;6101068;23;20110;-79
2022/07/15 06:33:08;;;;;;;8.02;1.73;;;;;;;;;;6100549;23;20019;-79
2022/07/15 06:35:36;;;;;;;6.88;1.33;;;;;;;;;;6100906;23;20410;-80
2022/07/15 06:38:10;;;;;;;9.60;1.30;;;;;;;;;;6101315;23;20031;-80
2022/07/15 06:40:37;;;;;;;7.20;1.13;;;;;;;;;;6100791;23;20035;-80
2022/07/15 06:43:04;;;;;;;8.35;1.42;;;;;;;;;;6100836;23;20023;-79
2022/07/15 06:45:32;;;;;;;5.95;1.35;;;;;;;;;;6100435;23;20066;-80
2022/07/15 06:47:59;;;;;;;7.72;1.40;;;;;;;;;;6099945;23;20030;-80
2022/07/15 06:50:26;;;;;;;4.53;1.02;;;;;;;;;;6098864;23;20030;-80
2022/07/15 06:52:54;;;;;;;6.78;1.10;;;;;;;;;;6123584;23;20102;-80
2022/07/15 06:55:21;;;;;;;8.48;1.27;;;;;;;;;;6100093;23;20110;-80
2022/07/15 06:57:48;;;;;;;4.82;1.20;;;;;;;;;;6100425;23;20376;-80
2022/07/15 07:00:16;;;;;;;5.90;1.33;;;;;;;;;;6100676;23;20027;-79
2022/07/15 07:02:43;;;;;;;5.57;1.20;;;;;;;;;;6099997;23;20052;-80
2022/07/15 07:05:14;;;;;;;8.65;1.70;;;;;;;;;;6122621;23;20026;-79
2022/07/15 07:07:42;;;;;;;5.75;1.35;;;;;;;;;;6099528;23;20469;-79
2022/07/15 07:10:09;;;;;;;9.65;1.50;;;;;;;;;;6100442;23;21263;-80
2022/07/15 07:12:37;;;;;;;12.95;1.40;;;;;;;;;;6101192;23;20045;-79
2022/07/15 07:15:07;;;;;;;5.30;1.58;;;;;;;;;;6100440;23;20101;-80
2022/07/15 07:17:34;;;;;;;6.85;1.20;;;;;;;;;;6099628;23;20098;-81
2022/07/15 07:20:01;;;;;;;5.65;1.23;;;;;;;;;;6098964;23;20575;-80
2022/07/15 07:22:28;;;;;;;4.43;1.30;;;;;;;;;;6121654;23;20117;-81
2022/07/15 07:24:56;;;;;;;14.20;1.45;;;;;;;;;;6100982;23;20101;-81
2022/07/15 07:27:23;;;;;;;9.50;1.63;;;;;;;;;;6098252;23;20031;-81
2022/07/15 07:29:50;;;;;;;5.93;1.17;;;;;;;;;;6099629;23;20023;-81
2022/07/15 07:32:17;;;;;;;5.82;1.42;;;;;;;;;;6098280;23;20047;-81
2022/07/15 07:34:44;;;;;;;5.03;1.35;;;;;;;;;;6102119;23;20049;-81
2022/07/15 07:37:11;;;;;;;5.15;1.52;;;;;;;;;;6102594;23;20492;-81
2022/07/15 07:39:38;;;;;;;4.85;1.23;;;;;;;;;;6103242;23;20035;-82
2022/07/15 07:42:06;;;;;;;7.43;1.30;;;;;;;;;;6130177;23;20026;-82
2022/07/15 07:44:33;;;;;;;5.15;0.82;;;;;;;;;;6103826;23;20025;-82
2022/07/15 07:47:00;;;;;;;8.25;1.40;;;;;;;;;;6102584;23;20019;-82
2022/07/15 07:49:27;;;;;;;4.20;1.40;;;;;;;;;;6103913;23;20027;-81
2022/07/15 07:52:03;;;;;;;5.53;1.10;;;;;;;;;;6102645;23;20654;-80
2022/07/15 07:54:30;;;;;;;5.45;1.10;;;;;;;;;;6102146;23;20050;-80
2022/07/15 07:56:57;;;;;;;8.50;1.33;;;;;;;;;;6100804;23;20053;-80
2022/07/15 07:59:24;;;;;;;3.63;1.13;;;;;;;;;;6125724;23;20015;-80
2022/07/15 08:01:51;;;;;;;5.43;0.82;;;;;;;;;;6101561;23;20031;-79
2022/07/15 08:04:19;;;;;;;5.93;1.25;;;;;;;;;;6101419;23;20023;-79
2022/07/15 08:06:46;;;;;;;4.53;1.25;;;;;;;;;;6099421;23;20508;-80
2022/07/15 08:09:13;;;;;;;5.43;1.08;;;;;;;;;;6102407;23;20033;-80
2022/07/15 08:11:40;;;;;;;8.38;1.33;;;;;;;;;;6102376;23;20022;-79
2022/07/15 08:14:07;;;;;;;4.00;1.13;;;;;;;;;;6125285;23;20106;-80
2022/07/15 08:16:42;;;;;;;4.35;0.88;;;;;;;;;;6100506;23;20106;-79
2022/07/15 08:19:13;;;;;;;4.70;1.23;;;;;;;;;;6110411;23;20034;-80
2022/07/15 08:21:41;;;;;;;5.35;1.17;;;;;;;;;;6103986;23;20038;-79
2022/07/15 08:24:10;;;;;;;4.15;0.88;;;;;;;;;;6102632;23;20023;-80
2022/07/15 08:26:37;;;;;;;4.10;0.90;;;;;;;;;;6104977;23;20054;-80
2022/07/15 08:29:05;;;;;;;5.75;1.10;;;;;;;;;;6101387;23;20602;-80
2022/07/15 08:31:33;;;;;;;4.55;1.00;;;;;;;;;;6104287;23;20745;-79
2022/07/15 08:34:00;;;;;;;5.32;1.23;;;;;;;;;;6104425;23;20023;-79
2022/07/15 08:36:27;;;;;;;2.58;0.90;;;;;;;;;;6112162;23;20027;-80
2022/07/15 08:38:55;;;;;;;4.60;0.93;;;;;;;;;;6118221;23;20106;-79
2022/07/15 08:41:22;;;;;;;5.45;1.10;;;;;;;;;;6141608;23;20018;-79
2022/07/15 08:43:49;;;;;;;2.78;0.82;;;;;;;;;;6115548;23;20023;-82
2022/07/15 08:46:16;;;;;;;4.65;0.90;;;;;;;;;;6116595;23;20022;-82
2022/07/15 08:48:49;;;;;;;3.28;0.90;;;;;;;;;;6113720;23;20245;-79
2022/07/15 08:51:19;;;;;;;4.03;1.02;;;;;;;;;;6114508;23;20023;-80
2022/07/15 08:53:46;;;;;;;1.70;0.73;;;;;;;;;;6114616;23;20071;-79
2022/07/15 08:56:13;;;;;;;5.72;0.90;;;;;;;;;;6104317;23;20030;-83
2022/07/15 08:58:45;;;;;;;3.53;0.95;;;;;;;;;;6105330;23;20035;-83
2022/07/15 09:01:28;;;;;;;3.95;0.85;;;;;;;;;;6104787;23;20111;-86
2022/07/15 09:03:56;;;;;;;5.15;1.20;;;;;;;;;;6130859;23;20361;-86
2022/07/15 09:06:36;;;;;;;3.67;0.93;;;;;;;;;;6123772;23;20030;-85
2022/07/15 09:09:18;;;;;;;2.97;0.98;;;;;;;;;;6105426;23;20030;-86
2022/07/15 09:11:57;;;;;;;7.32;0.90;;;;;;;;;;6124543;23;20018;-85
2022/07/15 09:14:41;;;;;;;1.65;0.68;;;;;;;;;;6122699;23;20074;-85
2022/07/15 09:17:09;;;;;;;1.70;0.88;;;;;;;;;;6128940;23;20030;-83
2022/07/15 09:20:01;;;;;;;2.33;0.60;;;;;;;;;;6098753;23;20725;-82
2022/07/15 09:22:30;;;;;;;0.85;0.50;;;;;;;;;;6146738;23;20057;-81
2022/07/15 09:25:05;;;;;;;4.47;0.70;;;;;;;;;;6098689;23;20086;-81
2022/07/15 09:27:34;;;;;;;2.42;0.57;;;;;;;;;;6100204;23;20019;-81
2022/07/15 09:36:04;;;;;;;3.03;0.82;;;;;;;;;;6099656;23;20706;-81
2022/07/15 09:38:52;;;;;;;2.92;0.85;;;;;;;;;;6099824;23;20027;-80
2022/07/15 09:41:25;;;;;;;4.32;1.00;;;;;;;;;;6094553;23;20094;-79
2022/07/15 09:43:52;;;;;;;;;;;;;;;;;;6100919;23;20027;-79
2022/07/15 09:46:21;;;;;;;1.63;0.60;;;;;;;;;;6098685;23;45918;-78
2022/07/15 09:48:49;;;;;;;3.25;0.70;;;;;;;;;;6099837;23;20023;-82
2022/07/15 09:51:17;;;;;;;2.00;0.60;;;;;;;;;;6100023;23;20107;-80
2022/07/15 09:53:44;;;;;;;1.52;0.63;;;;;;;;;;6099721;23;20752;-78
2022/07/15 09:56:20;;;;;;;6.50;1.10;;;;;;;;;;6100115;23;20105;-79
2022/07/15 09:58:48;;;;;;;1.80;0.80;;;;;;;;;;6100232;23;20372;-79
2022/07/15 10:01:15;;;;;;;8.75;0.82;;;;;;;;;;6100528;23;20035;-80
2022/07/15 10:03:50;;;;;;;2.33;0.73;;;;;;;;;;6100875;23;20034;-78
2022/07/15 10:06:17;;;;;;;3.65;0.70;;;;;;;;;;6100285;23;20094;-78
2022/07/15 10:08:46;;;;;;;1.75;0.80;;;;;;;;;;6146811;23;20022;-78
2022/07/15 10:11:14;;;;;;;5.32;0.95;;;;;;;;;;6099820;23;20109;-78
2022/07/15 10:13:44;;;;;;;3.70;0.90;;;;;;;;;;6102206;23;20102;-81
2022/07/15 10:16:11;;;;;;;3.47;0.70;;;;;;;;;;6101522;23;20027;-81
2022/07/15 10:19:05;;;;;;;2.90;0.85;;;;;;;;;;6100617;23;20926;-80
2022/07/15 10:21:35;;;;;;;1.67;0.60;;;;;;;;;;6100322;23;20102;-80
2022/07/15 10:24:30;;;;;;;2.33;0.70;;;;;;;;;;6121595;23;20030;-82
2022/07/15 10:27:29;;;;;;;5.82;0.73;;;;;;;;;;6124261;23;20027;-85
2022/07/15 10:29:57;;;;;;;4.57;0.82;;;;;;;;;;6104571;23;20036;-84
2022/07/15 10:32:24;;;;;;;8.27;1.15;;;;;;;;;;6131572;23;21027;-85
2022/07/15 10:34:57;;;;;;;3.50;0.93;;;;;;;;;;6137930;23;20094;-87
2022/07/15 10:37:27;;;;;;;4.40;1.00;;;;;;;;;;6141210;23;20007;-87
2022/07/15 10:40:09;;;;;;;6.75;1.10;;;;;;;;;;6139499;23;20075;-84
2022/07/15 10:42:58;;;;;;;4.75;0.90;;;;;;;;;;6143918;23;19995;-87
2022/07/15 10:45:26;;;;;;;2.38;0.70;;;;;;;;;;6135741;23;20078;-85
2022/07/15 10:48:12;;;;;;;3.55;0.80;;;;;;;;;;6128498;23;20655;-86
2022/07/15 10:50:50;;;;;;;2.22;0.75;;;;;;;;;;6125039;23;20926;-85
2022/07/15 10:53:21;;;;;;;2.90;0.80;;;;;;;;;;6132399;23;20007;-85
2022/07/15 10:55:48;;;;;;;3.17;0.90;;;;;;;;;;6146510;23;20006;-89
2022/07/15 10:58:17;;;;;;;6.40;1.20;;;;;;;;;;6144067;23;20055;-88
2022/07/15 11:00:47;;;;;;;2.80;0.70;;;;;;;;;;6139231;23;20019;-85
2022/07/15 11:03:14;;;;;;;3.45;1.27;;;;;;;;;;6124366;23;20118;-85
2022/07/15 11:06:02;;;;;;;4.80;0.90;;;;;;;;;;6099959;23;20770;-86
2022/07/15 11:08:39;;;;;;;6.32;1.17;;;;;;;;;;6095624;23;20093;-87
2022/07/15 11:11:15;;;;;;;4.90;0.95;;;;;;;;;;6098935;23;20022;-86
2022/07/15 11:13:49;;;;;;;1.50;0.60;;;;;;;;;;6122679;23;20061;-86
2022/07/15 11:16:45;;;;;;;3.05;0.80;;;;;;;;;;6117456;23;20031;-87
2022/07/15 11:19:19;;;;;;;2.25;0.70;;;;;;;;;;6123071;23;20027;-86
2022/07/15 11:21:49;;;;;;;2.83;0.80;;;;;;;;;;6122663;23;20062;-84
2022/07/15 11:24:19;;;;;;;5.15;0.63;;;;;;;;;;6122477;23;20003;-83
2022/07/15 11:27:03;;;;;;;1.27;0.70;;;;;;;;;;6120890;23;20045;-85
2022/07/15 11:29:47;;;;;;;2.85;0.70;;;;;;;;;;6122513;23;20018;-84
2022/07/15 11:32:21;;;;;;;3.33;0.60;;;;;;;;;;6121809;23;20030;-83
2022/07/15 11:34:58;;;;;;;3.38;0.80;;;;;;;;;;6120569;23;20023;-77
2022/07/15 11:37:32;;;;;;;3.00;0.85;;;;;;;;;;6120702;23;20434;-79
2022/07/15 11:40:08;;;;;;;3.25;1.08;;;;;;;;;;6095825;23;20026;-78
2022/07/15 11:45:34;;;;;;;6.18;0.85;;;;;;;;;;6099269;23;20038;-81
2022/07/15 11:48:02;;;;;;;5.72;0.85;;;;;;;;;;6099074;23;20023;-84
2022/07/15 11:50:31;;;;;;;1.42;0.63;;;;;;;;;;6099065;23;20054;-78
2022/07/15 11:52:59;;;;;;;5.38;0.93;;;;;;;;;;6097553;23;20033;-78
2022/07/15 11:55:26;;;;;;;4.25;0.80;;;;;;;;;;6096484;23;20759;-78
2022/07/15 11:57:54;;;;;;;2.70;0.70;;;;;;;;;;6120057;23;20725;-81
2022/07/15 12:00:29;;;;;;;2.95;0.70;;;;;;;;;;6098463;23;20027;-79
2022/07/15 12:03:06;;;;;;;2.25;0.70;;;;;;;;;;6123336;23;20884;-79
2022/07/15 12:05:34;;;;;;;1.77;0.65;;;;;;;;;;6100784;23;20058;-79
2022/07/15 12:08:01;;;;;;;2.08;0.70;;;;;;;;;;6100143;23;20083;-80
2022/07/15 12:10:35;;;;;;;3.72;0.80;;;;;;;;;;6099260;23;20400;-79
2022/07/15 12:13:04;;;;;;;3.35;1.02;;;;;;;;;;6098249;23;20457;-79
2022/07/15 12:15:33;;;;;;;4.60;0.80;;;;;;;;;;6098509;23;20083;-79
2022/07/15 12:18:00;;;;;;;3.00;1.00;;;;;;;;;;6097374;23;20023;-79
2022/07/15 12:20:28;;;;;;;1.83;0.90;;;;;;;;;;6121606;23;20071;-79
2022/07/15 12:23:06;;;;;;;0.85;0.50;;;;;;;;;;6098880;23;20023;-78
2022/07/15 12:25:33;;;;;;;2.78;0.80;;;;;;;;;;6099411;23;20023;-79
2022/07/15 12:28:00;;;;;;;3.70;0.73;;;;;;;;;;6098902;23;20102;-79
2022/07/15 12:30:36;;;;;;;3.90;0.90;;;;;;;;;;6098922;23;20072;-79
2022/07/15 12:33:15;;;;;;;1.65;0.70;;;;;;;;;;6121520;23;20031;-79
2022/07/15 12:35:47;;;;;;;3.22;0.90;;;;;;;;;;6132187;23;20019;-80
2022/07/15 12:38:26;;;;;;;7.03;0.90;;;;;;;;;;6110415;23;20029;-81
2022/07/15 12:41:06;;;;;;;12.75;1.10;;;;;;;;;;6133120;23;20019;-80
2022/07/15 12:43:48;;;;;;;389.13;21.63;;;;;;;;;;6131754;23;20018;-80
2022/07/15 12:46:19;;;;;;;4.35;0.80;;;;;;;;;;6107495;23;20358;-80
2022/07/15 12:48:48;;;;;;;3.72;1.13;;;;;;;;;;6111687;23;20023;-81
2022/07/15 12:51:16;;;;;;;3.33;0.90;;;;;;;;;;6140194;23;20023;-81
2022/07/15 12:53:45;;;;;;;2.35;0.90;;;;;;;;;;6111917;23;20023;-82
2022/07/15 12:56:12;;;;;;;2.53;0.80;;;;;;;;;;6137590;23;20111;-79
2022/07/15 12:58:40;;;;;;;1.55;0.82;;;;;;;;;;6124011;23;20385;-80
2022/07/15 13:01:11;;;;;;;1.48;0.70;;;;;;;;;;6125522;23;20019;-81
2022/07/15 13:03:41;;;;;;;2.53;1.00;;;;;;;;;;6105119;23;20049;-81
2022/07/15 13:06:08;;;;;;;4.32;1.20;;;;;;;;;;6108525;23;20023;-82
2022/07/15 13:08:37;;;;;;;2.72;1.00;;;;;;;;;;6107292;23;20023;-82
2022/07/15 13:11:05;;;;;;;5.35;1.30;;;;;;;;;;6114245;23;20023;-81
2022/07/15 13:13:37;;;;;;;3.80;1.00;;;;;;;;;;6136037;23;20022;-82
2022/07/15 13:16:05;;;;;;;1.38;0.90;;;;;;;;;;6116743;23;20023;-82
2022/07/15 13:18:33;;;;;;;5.95;1.20;;;;;;;;;;6113098;23;20023;-81
2022/07/15 13:21:03;;;;;;;3.17;1.15;;;;;;;;;;6134960;23;20023;-84
2022/07/15 13:23:31;;;;;;;4.40;1.10;;;;;;;;;;6129908;23;20066;-82
2022/07/15 13:26:06;;;;;;;5.10;1.10;;;;;;;;;;6129758;23;20025;-80
2022/07/15 13:28:34;;;;;;;3.30;1.10;;;;;;;;;;6125899;23;20022;-80
2022/07/15 13:31:01;;;;;;;1.98;1.20;;;;;;;;;;6099354;23;20594;-80
2022/07/15 13:33:28;;;;;;;3.95;1.10;;;;;;;;;;6102506;23;20118;-80
2022/07/15 13:35:57;;;;;;;5.13;1.23;;;;;;;;;;6132161;23;20049;-80
2022/07/15 13:38:24;;;;;;;4.95;1.60;;;;;;;;;;6112442;23;20070;-80
2022/07/15 13:40:58;;;;;;;9.73;1.35;;;;;;;;;;6107014;23;20054;-78
2022/07/15 13:43:32;;;;;;;2.90;1.17;;;;;;;;;;6099419;23;20035;-84
2022/07/15 13:51:22;;;;;;;3.22;1.27;;;;;;;;;;6031707;23;20021;-86
2022/07/15 13:52:30;;;;;;;4.13;1.23;;;;;;;;;;6011693;23;20092;-85
2022/07/15 14:02:21;;;;;;;5.38;1.30;;;;;;;;;;5797111;24;20465;-86
2022/07/15 14:05:19;;;;;;;5.20;1.40;;;;;;;;;;5780039;24;20028;-88
2022/07/15 14:08:01;;;;;;;5.80;1.23;;;;;;;;;;5773374;24;20812;-84
2022/07/15 14:10:46;;;;;;;1.17;0.80;;;;;;;;;;5773858;24;20235;-85
2022/07/15 14:14:06;;;;;;;2.50;1.20;;;;;;;;;;5781803;24;20036;-86
2022/07/15 14:16:32;;;;;;;2.72;1.02;;;;;;;;;;5793164;24;20019;-82
2022/07/15 14:19:13;;;;;;;4.03;1.40;;;;;;;;;;5818316;24;20016;-84
2022/07/15 14:22:09;;;;;;;4.90;1.23;;;;;;;;;;5795111;24;20036;-87
2022/07/15 14:24:50;;;;;;;3.05;1.42;;;;;;;;;;5804407;24;20485;-86
2022/07/15 14:27:18;;;;;;;3.72;1.23;;;;;;;;;;5923742;23;20793;-84
2022/07/15 14:29:48;;;;;;;2.60;1.27;;;;;;;;;;5899766;24;20026;-86
2022/07/15 14:32:19;;;;;;;3.72;1.33;;;;;;;;;;5916090;24;20125;-86
2022/07/15 14:34:53;;;;;;;5.03;1.27;;;;;;;;;;5953042;24;20021;-86
2022/07/15 14:37:21;;;;;;;4.55;1.33;;;;;;;;;;5980978;23;20017;-85
2022/07/15 14:40:01;;;;;;;5.80;1.33;;;;;;;;;;6141812;23;20030;-87
2022/07/15 14:42:31;;;;;;;2.75;1.08;;;;;;;;;;6148095;23;20058;-87
2022/07/15 14:45:03;;;;;;;4.95;1.15;;;;;;;;;;6146302;23;20003;-85
2022/07/15 14:47:31;;;;;;;3.33;1.10;;;;;;;;;;6145036;23;20047;-86
2022/07/15 14:50:00;;;;;;;3.63;1.17;;;;;;;;;;6148166;23;20007;-87
2022/07/15 14:52:29;;;;;;;4.75;1.23;;;;;;;;;;6148934;23;20011;-84
2022/07/15 14:55:01;;;;;;;6.03;1.40;;;;;;;;;;6127225;23;20003;-86
2022/07/15 14:57:28;;;;;;;2.88;1.20;;;;;;;;;;6150022;23;20079;-85
2022/07/15 14:59:56;;;;;;;3.97;1.40;;;;;;;;;;6126535;23;20019;-84
2022/07/15 15:02:37;;;;;;;7.05;1.60;;;;;;;;;;6145707;23;20091;-85
2022/07/15 15:05:07;;;;;;;10.88;1.50;;;;;;;;;;6140157;23;20086;-84
2022/07/15 15:07:37;;;;;;;3.22;1.48;;;;;;;;;;6117892;23;20055;-84
2022/07/15 15:10:08;;;;;;;7.25;1.55;;;;;;;;;;6120388;23;20098;-84
2022/07/15 15:39:46;;;;;;;7.43;1.40;;;;;;;;;;6227182;22;1258904;-81
2022/07/15 15:42:13;;;;;;;5.13;1.63;;;;;;;;;;6313640;22;20150;-80
2022/07/15 15:44:47;;;;;;;5.57;1.70;;;;;;;;;;6289506;22;20045;-81
2022/07/15 15:47:14;;;;;;;6.13;1.50;;;;;;;;;;6286471;22;21056;-82
2022/07/15 15:49:42;;;;;;;4.20;1.50;;;;;;;;;;6315598;22;20043;-84
2022/07/15 15:52:09;;;;;;;8.55;1.90;;;;;;;;;;6286379;22;20019;-85